createdAt,value
2022-11-15T00:01:44.296Z,17.92
2022-11-15T00:04:29.663Z,14.32
2022-11-15T00:07:40.390Z,17.98
2022-11-15T00:10:20.688Z,18.63
2022-11-15T00:13:11.558Z,19.05
2022-11-15T00:16:02.368Z,16.98
2022-11-15T00:18:50.904Z,17.30
2022-11-15T00:21:36.351Z,17.83
2022-11-15T00:24:21.630Z,19.03
2022-11-15T00:27:08.204Z,19.85
2022-11-15T00:29:54.321Z,18.80
2022-11-15T00:32:39.668Z,18.98
2022-11-15T00:35:25.167Z,19.63
2022-11-15T00:38:10.776Z,17.73
2022-11-15T00:40:56.268Z,16.55
2022-11-15T00:43:44.332Z,18.63
2022-11-15T00:46:29.943Z,19.02
2022-11-15T00:49:15.330Z,19.02
2022-11-15T00:52:00.843Z,19.47
2022-11-15T00:54:46.345Z,17.88
2022-11-15T00:57:31.768Z,19.45
2022-11-15T01:00:17.660Z,18.48
2022-11-15T01:03:02.855Z,18.58
2022-11-15T01:05:48.374Z,19.40
2022-11-15T01:08:33.904Z,17.23
2022-11-15T01:11:19.107Z,19.38
2022-11-15T01:14:04.767Z,19.73
2022-11-15T01:16:50.314Z,15.82
2022-11-15T01:19:35.910Z,16.23
2022-11-15T01:22:21.596Z,18.98
2022-11-15T01:25:07.165Z,19.50
2022-11-15T01:27:52.648Z,19.45
2022-11-15T01:30:37.999Z,19.92
2022-11-15T01:33:23.311Z,19.70
2022-11-15T01:36:13.880Z,20.20
2022-11-15T01:39:00.318Z,20.70
2022-11-15T01:41:45.531Z,20.50
2022-11-15T01:44:52.848Z,20.60
2022-11-15T01:47:41.606Z,18.03
2022-11-15T01:50:32.136Z,16.58
2022-11-15T01:53:19.542Z,19.55
2022-11-15T01:56:09.013Z,21.63
2022-11-15T01:58:57.506Z,20.50
2022-11-15T02:01:43.223Z,18.03
2022-11-15T02:04:34.783Z,21.55
2022-11-15T02:07:22.718Z,18.13
2022-11-15T02:10:11.752Z,20.00
2022-11-15T02:13:00.366Z,20.70
2022-11-15T02:16:07.057Z,18.53
2022-11-15T02:19:19.084Z,21.65
2022-11-15T02:22:33.630Z,19.98
2022-11-15T02:25:47.213Z,18.45
2022-11-15T02:28:38.168Z,13.98
2022-11-15T02:31:54.837Z,17.40
2022-11-15T02:35:12.992Z,18.52
2022-11-15T02:38:31.230Z,19.60
2022-11-15T02:41:39.451Z,20.00
2022-11-15T02:44:31.511Z,13.98
2022-11-15T02:47:18.658Z,20.13
2022-11-15T02:50:10.224Z,16.20
2022-11-15T02:52:55.993Z,14.55
2022-11-15T02:55:52.116Z,17.50
2022-11-15T02:58:43.669Z,20.73
2022-11-15T03:01:57.218Z,16.80
2022-11-15T03:05:20.269Z,18.23
2022-11-15T03:08:13.442Z,16.00
2022-11-15T03:11:09.543Z,18.30
2022-11-15T03:13:58.594Z,18.17
2022-11-15T03:16:49.921Z,15.77
2022-11-15T03:19:53.848Z,16.17
2022-11-15T03:22:43.777Z,13.68
2022-11-15T03:25:31.792Z,15.00
2022-11-15T03:28:26.343Z,16.75
2022-11-15T03:31:33.225Z,18.50
2022-11-15T03:34:38.981Z,16.77
2022-11-15T03:37:36.265Z,14.52
2022-11-15T03:40:37.968Z,16.45
2022-11-15T03:43:46.631Z,14.52
2022-11-15T03:46:38.009Z,16.47
2022-11-15T03:49:28.950Z,17.50
2022-11-15T03:52:19.644Z,15.35
2022-11-15T03:55:07.371Z,18.23
2022-11-15T03:57:58.912Z,15.00
2022-11-15T04:00:44.273Z,17.73
2022-11-15T04:03:29.962Z,15.52
2022-11-15T04:06:15.825Z,16.15
2022-11-15T04:09:01.309Z,15.88
2022-11-15T04:11:46.785Z,16.67
2022-11-15T04:14:32.271Z,16.97
2022-11-15T04:17:17.718Z,15.98
2022-11-15T04:20:28.039Z,16.70
2022-11-15T04:23:41.698Z,15.35
2022-11-15T04:26:27.327Z,15.88
2022-11-15T04:29:31.488Z,15.67
2022-11-15T04:32:17.045Z,15.45
2022-11-15T04:35:02.622Z,16.63
2022-11-15T04:37:49.558Z,17.45
2022-11-15T04:40:36.654Z,15.10
2022-11-15T04:43:22.009Z,15.97
2022-11-15T04:46:07.484Z,15.23
2022-11-15T04:48:58.323Z,16.30
2022-11-15T04:51:44.933Z,16.50
2022-11-15T04:54:30.481Z,13.55
2022-11-15T04:57:15.882Z,14.43
2022-11-15T05:00:03.602Z,13.85
2022-11-15T05:03:07.420Z,12.00
2022-11-15T05:05:52.928Z,12.98
2022-11-15T05:08:38.404Z,13.88
2022-11-15T05:11:24.495Z,13.00
2022-11-15T05:14:10.627Z,10.77
2022-11-15T05:16:56.243Z,13.32
2022-11-15T05:19:41.638Z,10.63
2022-11-15T05:22:28.011Z,14.57
2022-11-15T05:25:13.101Z,13.87
2022-11-15T05:27:58.562Z,12.18
2022-11-15T05:30:44.002Z,12.60
2022-11-15T05:33:30.417Z,14.73
2022-11-15T05:36:38.684Z,13.55
2022-11-15T05:39:24.251Z,13.73
2022-11-15T05:42:15.000Z,13.40
2022-11-15T05:45:03.249Z,9.90
2022-11-15T05:47:50.472Z,12.57
2022-11-15T05:50:39.202Z,11.20
2022-11-15T05:53:26.809Z,9.77
2022-11-15T05:56:13.446Z,10.05
2022-11-15T05:59:00.098Z,13.82
2022-11-15T06:01:46.199Z,10.82
2022-11-15T06:04:31.650Z,13.40
2022-11-15T06:07:17.383Z,13.50
2022-11-15T06:10:02.639Z,13.75
2022-11-15T06:12:48.120Z,11.20
2022-11-15T06:15:35.248Z,14.75
2022-11-15T06:18:20.506Z,15.43
2022-11-15T06:21:06.533Z,13.67
2022-11-15T06:23:51.918Z,13.90
2022-11-15T06:26:37.479Z,12.50
2022-11-15T06:29:23.036Z,13.13
2022-11-15T06:32:08.597Z,13.48
2022-11-15T06:34:54.188Z,11.47
2022-11-15T06:37:39.676Z,12.20
2022-11-15T06:40:25.195Z,12.30
2022-11-15T06:43:10.595Z,11.73
2022-11-15T06:45:55.877Z,13.48
2022-11-15T06:48:41.449Z,13.47
2022-11-15T06:51:26.658Z,13.82
2022-11-15T06:54:12.328Z,14.15
2022-11-15T06:56:57.789Z,13.07
2022-11-15T06:59:43.200Z,13.45
2022-11-15T07:02:28.751Z,12.70
2022-11-15T07:05:15.169Z,12.80
2022-11-15T07:08:00.840Z,11.57
2022-11-15T07:10:45.895Z,13.50
2022-11-15T07:13:34.793Z,13.32
2022-11-15T07:16:20.590Z,12.77
2022-11-15T07:19:06.196Z,13.35
2022-11-15T07:21:51.889Z,11.55
2022-11-15T07:24:37.365Z,12.38
2022-11-15T07:27:22.746Z,13.27
2022-11-15T07:30:09.017Z,11.43
2022-11-15T07:32:55.904Z,13.02
2022-11-15T07:35:41.146Z,11.57
2022-11-15T07:38:26.769Z,12.05
2022-11-15T07:41:12.226Z,11.68
2022-11-15T07:43:58.692Z,10.50
2022-11-15T07:46:44.273Z,11.88
2022-11-15T07:49:29.680Z,11.57
2022-11-15T07:52:15.200Z,10.02
2022-11-15T07:55:00.610Z,11.50
2022-11-15T07:57:46.104Z,11.30
2022-11-15T08:00:32.120Z,10.20
2022-11-15T08:03:18.362Z,8.68
2022-11-15T08:06:04.816Z,10.52
2022-11-15T08:08:50.208Z,9.20
2022-11-15T08:11:35.858Z,10.13
2022-11-15T08:14:22.960Z,8.88
2022-11-15T08:17:08.731Z,8.55
2022-11-15T08:19:54.242Z,8.55
2022-11-15T08:22:39.734Z,9.30
2022-11-15T08:25:29.441Z,13.00
2022-11-15T08:28:17.742Z,14.73
2022-11-15T08:31:04.467Z,10.23
2022-11-15T08:33:50.043Z,7.60
2022-11-15T08:36:44.636Z,9.98
2022-11-15T08:39:31.802Z,7.63
2022-11-15T08:42:19.918Z,13.15
2022-11-15T08:45:06.568Z,11.88
2022-11-15T08:47:54.415Z,9.48
2022-11-15T08:50:39.881Z,7.72
2022-11-15T08:53:25.436Z,5.97
2022-11-15T08:56:12.623Z,7.00
2022-11-15T08:58:58.040Z,7.32
2022-11-15T09:01:43.378Z,6.75
2022-11-15T09:04:28.944Z,18.70
2022-11-15T09:07:14.846Z,9.90
2022-11-15T09:10:00.479Z,10.73
2022-11-15T09:12:49.246Z,17.60
2022-11-15T09:15:35.092Z,8.32
2022-11-15T09:18:23.190Z,11.60
2022-11-15T09:21:08.951Z,6.43
2022-11-15T09:23:54.601Z,10.02
2022-11-15T09:26:40.698Z,6.85
2022-11-15T09:29:25.982Z,12.68
2022-11-15T09:32:11.544Z,8.82
2022-11-15T09:34:57.370Z,6.63
2022-11-15T09:37:42.647Z,11.75
2022-11-15T09:40:28.634Z,7.25
2022-11-15T09:43:32.640Z,8.52
2022-11-15T09:46:27.799Z,6.20
2022-11-15T09:49:18.144Z,5.67
2022-11-15T09:52:22.133Z,12.18
2022-11-15T09:54:55.546Z,9.43
2022-11-15T09:57:45.556Z,7.53
2022-11-15T10:00:47.461Z,5.63
2022-11-15T10:03:26.886Z,5.37
2022-11-15T10:05:58.041Z,12.32
2022-11-15T10:08:48.013Z,5.70
2022-11-15T10:11:38.341Z,4.97
2022-11-15T10:14:22.212Z,5.55
2022-11-15T10:17:02.313Z,4.97
2022-11-15T10:19:38.427Z,6.38
2022-11-15T10:22:42.347Z,10.00
2022-11-15T10:25:25.627Z,6.55
2022-11-15T10:28:03.071Z,13.43
2022-11-15T10:30:38.999Z,13.73
2022-11-15T10:33:34.601Z,6.97
2022-11-15T10:36:09.301Z,9.02
2022-11-15T10:39:04.037Z,4.95
2022-11-15T10:41:36.082Z,6.50
2022-11-15T10:44:18.301Z,5.50
2022-11-15T10:46:49.651Z,8.55
2022-11-15T10:49:18.992Z,9.82
2022-11-15T10:52:05.375Z,4.60
2022-11-15T10:54:38.835Z,17.17
2022-11-15T10:57:27.564Z,14.13
2022-11-15T11:00:21.384Z,11.60
2022-11-15T11:02:57.110Z,4.60
2022-11-15T11:05:29.099Z,3.72
2022-11-15T11:08:05.365Z,3.50
2022-11-15T11:13:25.571Z,7.38
2022-11-15T11:16:10.546Z,7.55
2022-11-15T11:18:58.999Z,6.85
2022-11-15T11:22:04.562Z,9.70
2022-11-15T11:24:38.831Z,5.70
2022-11-15T11:27:23.569Z,5.00
2022-11-15T11:29:59.214Z,17.08
2022-11-15T11:32:55.251Z,10.10
2022-11-15T11:35:29.792Z,8.32
2022-11-15T11:38:16.149Z,6.30
2022-11-15T11:41:08.613Z,6.57
2022-11-15T11:43:59.092Z,4.28
2022-11-15T11:46:50.840Z,3.20
2022-11-15T11:49:20.982Z,13.30
2022-11-15T11:52:08.615Z,4.60
2022-11-15T11:54:46.355Z,4.35
2022-11-15T11:57:29.062Z,3.20
2022-11-15T12:00:01.925Z,2.28
2022-11-15T12:02:43.013Z,2.47
2022-11-15T12:05:29.293Z,2.30
2022-11-15T12:08:28.101Z,1.80
2022-11-15T12:11:07.402Z,1.98
2022-11-15T12:13:37.666Z,1.83
2022-11-15T12:16:23.696Z,1.85
2022-11-15T12:18:54.737Z,1.80
2022-11-15T12:21:44.805Z,1.50
2022-11-15T12:24:25.634Z,1.90
2022-11-15T12:27:00.596Z,1.73
2022-11-15T12:29:49.485Z,1.85
2022-11-15T12:32:32.437Z,1.63
2022-11-15T12:35:00.295Z,1.60
2022-11-15T12:37:34.769Z,1.60
2022-11-15T12:40:19.195Z,1.60
2022-11-15T12:43:15.003Z,1.60
2022-11-15T12:45:44.330Z,1.60
2022-11-15T12:48:17.275Z,1.48
2022-11-15T12:50:56.018Z,1.60
2022-11-15T12:53:26.297Z,1.60
2022-11-15T12:56:21.704Z,1.90
2022-11-15T12:58:53.096Z,1.50
2022-11-15T13:01:34.894Z,1.60
2022-11-15T13:04:20.432Z,1.63
2022-11-15T13:06:51.570Z,1.40
2022-11-15T13:09:33.268Z,1.55
2022-11-15T13:12:35.335Z,1.47
2022-11-15T13:15:22.900Z,1.50
2022-11-15T13:17:50.814Z,1.92
2022-11-15T13:20:17.502Z,1.50
2022-11-15T13:22:51.635Z,1.63
2022-11-15T13:25:36.981Z,1.80
2022-11-15T13:28:15.266Z,1.70
2022-11-15T13:30:48.015Z,1.73
2022-11-15T13:33:18.537Z,1.42
2022-11-15T13:35:49.989Z,1.63
2022-11-15T13:38:27.323Z,1.70
2022-11-15T13:40:54.230Z,1.60
2022-11-15T13:43:24.094Z,1.60
2022-11-15T13:46:24.014Z,1.80
2022-11-15T13:48:59.719Z,1.92
2022-11-15T13:51:41.179Z,1.60
2022-11-15T13:54:13.756Z,1.80
2022-11-15T13:57:03.772Z,1.70
2022-11-15T13:59:34.201Z,1.50
2022-11-15T14:02:12.073Z,1.60
2022-11-15T14:04:46.088Z,1.70
2022-11-15T14:07:19.968Z,1.77
2022-11-15T14:09:47.289Z,2.00
2022-11-15T14:12:34.797Z,1.50
2022-11-15T14:15:20.173Z,2.03
2022-11-15T14:17:50.044Z,1.93
2022-11-15T14:20:24.803Z,1.90
2022-11-15T14:22:57.157Z,2.20
2022-11-15T14:25:25.951Z,2.10
2022-11-15T14:28:34.307Z,2.10
2022-11-15T14:31:01.634Z,2.13
2022-11-15T14:33:37.048Z,2.10
2022-11-15T14:36:14.284Z,2.20
2022-11-15T14:38:41.410Z,2.08
2022-11-15T14:41:23.595Z,2.00
2022-11-15T14:43:51.871Z,2.57
2022-11-15T14:46:18.919Z,2.22
2022-11-15T14:48:45.993Z,2.10
2022-11-15T14:51:14.747Z,2.10
2022-11-15T14:53:42.827Z,1.90
2022-11-15T14:56:10.226Z,2.10
2022-11-15T14:58:37.058Z,1.75
2022-11-15T15:01:19.725Z,1.95
2022-11-15T15:03:46.541Z,2.10
2022-11-15T15:06:17.863Z,1.80
2022-11-15T15:08:46.559Z,1.80
2022-11-15T15:11:32.318Z,1.90
2022-11-15T15:14:00.504Z,2.10
2022-11-15T15:16:27.291Z,1.90
2022-11-15T15:18:54.066Z,1.90
2022-11-15T15:21:24.403Z,1.93
2022-11-15T15:23:52.355Z,1.73
2022-11-15T15:26:19.127Z,1.90
2022-11-15T15:28:45.921Z,1.70
2022-11-15T15:31:12.719Z,1.92
2022-11-15T15:33:39.609Z,1.80
2022-11-15T15:36:06.598Z,2.05
2022-11-15T15:38:33.817Z,1.67
2022-11-15T15:41:02.908Z,1.77
2022-11-15T15:43:29.660Z,2.00
2022-11-15T15:45:56.381Z,1.80
2022-11-15T15:48:23.234Z,1.90
2022-11-15T15:50:50.193Z,2.00
2022-11-15T15:53:18.246Z,1.65
2022-11-15T15:55:45.065Z,1.70
2022-11-15T15:58:11.962Z,1.80
2022-11-15T16:00:39.713Z,1.65
2022-11-15T16:03:06.547Z,2.05
2022-11-15T16:05:33.288Z,1.83
2022-11-15T16:08:00.351Z,1.85
2022-11-15T16:10:30.302Z,1.80
2022-11-15T16:12:58.524Z,1.80
2022-11-15T16:15:30.329Z,1.98
2022-11-15T16:17:59.134Z,1.92
2022-11-15T16:20:45.245Z,1.90
2022-11-15T16:23:14.850Z,1.90
2022-11-15T16:25:52.886Z,2.08
2022-11-15T16:28:25.437Z,1.92
2022-11-15T16:31:00.793Z,2.00
2022-11-15T16:33:27.724Z,1.90
2022-11-15T16:35:54.550Z,2.40
2022-11-15T16:38:21.313Z,2.10
2022-11-15T16:40:48.228Z,2.00
2022-11-15T16:43:15.286Z,2.35
2022-11-15T16:45:42.154Z,2.10
2022-11-15T16:48:26.243Z,2.27
2022-11-15T16:50:57.631Z,2.10
2022-11-15T16:53:25.125Z,2.30
2022-11-15T16:55:52.088Z,2.50
2022-11-15T16:58:18.900Z,2.45
2022-11-15T17:00:46.229Z,2.33
2022-11-15T17:03:13.101Z,2.65
2022-11-15T17:05:39.913Z,2.53
2022-11-15T17:08:06.727Z,2.38
2022-11-15T17:10:36.521Z,2.50
2022-11-15T17:13:03.372Z,2.70
2022-11-15T17:15:30.167Z,2.40
2022-11-15T17:17:56.888Z,2.83
2022-11-15T17:20:25.067Z,2.60
2022-11-15T17:22:52.904Z,2.60
2022-11-15T17:25:20.595Z,2.70
2022-11-15T17:27:47.673Z,2.92
2022-11-15T17:30:15.441Z,2.83
2022-11-15T17:32:43.289Z,2.65
2022-11-15T17:35:15.675Z,2.70
2022-11-15T17:37:43.312Z,3.20
2022-11-15T17:40:10.903Z,3.25
2022-11-15T17:42:40.147Z,3.58
2022-11-15T17:45:10.220Z,3.60
2022-11-15T17:47:37.464Z,5.35
2022-11-15T17:50:04.680Z,3.87
2022-11-15T17:52:31.508Z,4.82
2022-11-15T17:54:58.310Z,4.57
2022-11-15T17:57:25.108Z,4.22
2022-11-15T17:59:51.925Z,4.65
2022-11-15T18:02:19.472Z,4.37
2022-11-15T18:04:46.337Z,4.35
2022-11-15T18:07:14.358Z,4.30
2022-11-15T18:09:43.868Z,4.43
2022-11-15T18:12:11.983Z,5.78
2022-11-15T18:14:39.024Z,5.47
2022-11-15T18:17:06.049Z,4.65
2022-11-15T18:19:32.838Z,4.85
2022-11-15T18:22:00.830Z,5.47
2022-11-15T18:24:30.375Z,4.50
2022-11-15T18:26:58.367Z,4.40
2022-11-15T18:29:25.272Z,5.00
2022-11-15T18:31:55.792Z,4.28
2022-11-15T18:34:24.545Z,4.53
2022-11-15T18:36:52.655Z,4.28
2022-11-15T18:39:20.183Z,4.37
2022-11-15T18:41:47.815Z,4.22
2022-11-15T18:44:15.281Z,4.70
2022-11-15T18:46:42.899Z,4.85
2022-11-15T18:49:10.917Z,4.53
2022-11-15T18:51:41.563Z,4.80
2022-11-15T18:54:10.764Z,4.25
2022-11-15T18:56:38.300Z,4.50
2022-11-15T18:59:06.216Z,4.50
2022-11-15T19:01:35.693Z,4.40
2022-11-15T19:04:08.768Z,10.43
2022-11-15T19:06:41.542Z,7.60
2022-11-15T19:09:09.912Z,6.50
2022-11-15T19:11:39.583Z,5.88
2022-11-15T19:14:07.701Z,5.72
2022-11-15T19:16:36.627Z,6.90
2022-11-15T19:19:06.716Z,13.25
2022-11-15T19:21:34.444Z,7.35
2022-11-15T19:24:01.519Z,11.77
2022-11-15T19:26:29.353Z,9.18
2022-11-15T19:29:01.176Z,10.83
2022-11-15T19:31:30.303Z,7.22
2022-11-15T19:33:59.981Z,11.02
2022-11-15T19:36:32.599Z,11.50
2022-11-15T19:39:05.185Z,14.75
2022-11-15T19:41:32.134Z,5.63
2022-11-15T19:43:58.923Z,6.63
2022-11-15T19:46:26.873Z,9.50
2022-11-15T19:48:54.452Z,7.13
2022-11-15T19:51:27.395Z,7.72
2022-11-15T19:53:56.173Z,9.60
2022-11-15T19:56:23.668Z,6.03
2022-11-15T19:58:52.832Z,7.43
2022-11-15T20:01:21.194Z,15.35
2022-11-15T20:03:48.982Z,11.80
2022-11-15T20:06:20.301Z,8.40
2022-11-15T20:08:47.980Z,6.88
2022-11-15T20:11:16.100Z,7.00
2022-11-15T20:13:43.590Z,7.80
2022-11-15T20:16:21.613Z,6.43
2022-11-15T20:18:50.238Z,7.23
2022-11-15T20:21:18.018Z,7.63
2022-11-15T20:23:45.351Z,7.18
2022-11-15T20:26:15.161Z,7.45
2022-11-15T20:28:43.960Z,7.57
2022-11-15T20:31:11.868Z,7.60
2022-11-15T20:33:38.801Z,7.35
2022-11-15T20:36:12.066Z,7.30
2022-11-15T20:38:39.719Z,7.18
2022-11-15T20:41:06.831Z,7.10
2022-11-15T20:43:33.850Z,7.03
2022-11-15T20:46:00.728Z,7.10
2022-11-15T20:48:27.971Z,7.40
2022-11-15T20:51:05.319Z,7.50
2022-11-15T20:53:32.182Z,7.15
2022-11-15T20:56:04.514Z,7.43
2022-11-15T20:58:31.585Z,7.43
2022-11-15T21:00:58.803Z,8.02
2022-11-15T21:03:25.854Z,7.93
2022-11-15T21:05:53.792Z,6.85
2022-11-15T21:08:20.624Z,6.90
2022-11-15T21:11:09.984Z,7.72
2022-11-15T21:13:37.456Z,7.03
2022-11-15T21:16:05.440Z,7.13
2022-11-15T21:18:33.202Z,8.05
2022-11-15T21:21:05.446Z,7.93
2022-11-15T21:23:32.496Z,7.88
2022-11-15T21:25:59.583Z,8.45
2022-11-15T21:28:26.330Z,7.68
2022-11-15T21:30:58.990Z,7.85
2022-11-15T21:33:29.784Z,7.47
2022-11-15T21:35:57.688Z,8.13
2022-11-15T21:38:25.101Z,8.52
2022-11-15T21:40:52.939Z,8.90
2022-11-15T21:43:20.952Z,8.93
2022-11-15T21:45:58.401Z,8.97
2022-11-15T21:48:25.184Z,9.25
2022-11-15T21:50:59.694Z,9.55
2022-11-15T21:53:27.639Z,9.65
2022-11-15T21:55:54.896Z,10.10
2022-11-15T21:58:22.728Z,10.30
2022-11-15T22:01:08.373Z,9.52
2022-11-15T22:03:35.933Z,10.20
2022-11-15T22:06:02.835Z,9.60
2022-11-15T22:08:31.241Z,9.73
2022-11-15T22:10:58.363Z,10.13
2022-11-15T22:13:26.092Z,10.60
2022-11-15T22:15:54.143Z,10.20
2022-11-15T22:18:26.380Z,10.02
2022-11-15T22:21:00.722Z,10.00
2022-11-15T22:23:29.292Z,10.10
2022-11-15T22:25:56.555Z,9.43
2022-11-15T22:28:23.718Z,10.82
2022-11-15T22:30:52.212Z,9.80
2022-11-15T22:33:21.183Z,10.73
2022-11-15T22:35:48.126Z,10.50
2022-11-15T22:38:15.227Z,10.40
2022-11-15T22:40:42.202Z,10.48
2022-11-15T22:43:10.040Z,10.10
2022-11-15T22:45:36.746Z,10.15
2022-11-15T22:48:03.648Z,11.03
2022-11-15T22:50:30.519Z,10.90
2022-11-15T22:52:57.383Z,10.98
2022-11-15T22:55:24.117Z,11.18
2022-11-15T22:57:51.014Z,10.63
2022-11-15T23:00:18.599Z,10.73
2022-11-15T23:02:45.350Z,10.32
2022-11-15T23:05:12.093Z,9.98
2022-11-15T23:07:38.953Z,10.35
2022-11-15T23:10:24.839Z,10.48
2022-11-15T23:13:10.548Z,10.10
2022-11-15T23:15:56.134Z,9.98
2022-11-15T23:18:22.878Z,10.55
2022-11-15T23:20:49.758Z,11.13
2022-11-15T23:23:16.488Z,10.32
2022-11-15T23:25:43.348Z,8.67
2022-11-15T23:28:10.130Z,10.50
2022-11-15T23:30:56.502Z,9.85
2022-11-15T23:33:42.031Z,10.10
2022-11-15T23:36:09.084Z,10.05
2022-11-15T23:38:37.394Z,10.20
2022-11-15T23:41:05.788Z,10.00
2022-11-15T23:43:32.854Z,9.77
2022-11-15T23:46:03.069Z,9.45
2022-11-15T23:48:29.972Z,8.65
2022-11-15T23:50:56.980Z,9.57
2022-11-15T23:53:23.858Z,9.32
2022-11-15T23:56:02.155Z,9.15
2022-11-15T23:58:29.121Z,9.60
